sensor_id;sensor_type;location;lat;lon;timestamp;temperature;humidity
71801;HTU21D;59647;55.838;37.292;2022-07-29T00:00:49;17.53;104.76
71801;HTU21D;59647;55.838;37.292;2022-07-29T00:03:14;17.49;105.31
71801;HTU21D;59647;55.838;37.292;2022-07-29T00:05:41;17.46;104.32
71801;HTU21D;59647;55.838;37.292;2022-07-29T00:08:08;17.41;105.79
71801;HTU21D;59647;55.838;37.292;2022-07-29T00:10:34;17.39;103.72
71801;HTU21D;59647;55.838;37.292;2022-07-29T00:13:00;17.37;103.79
71801;HTU21D;59647;55.838;37.292;2022-07-29T00:15:27;17.34;104.95
71801;HTU21D;59647;55.838;37.292;2022-07-29T00:17:53;17.25;105.66
71801;HTU21D;59647;55.838;37.292;2022-07-29T00:20:19;17.23;105.37
71801;HTU21D;59647;55.838;37.292;2022-07-29T00:22:45;17.18;105.26
71801;HTU21D;59647;55.838;37.292;2022-07-29T00:25:12;17.14;104.78
71801;HTU21D;59647;55.838;37.292;2022-07-29T00:27:38;17.10;105.00
71801;HTU21D;59647;55.838;37.292;2022-07-29T00:30:05;17.07;106.73
71801;HTU21D;59647;55.838;37.292;2022-07-29T00:32:31;17.03;104.73
71801;HTU21D;59647;55.838;37.292;2022-07-29T00:34:56;17.02;104.39
71801;HTU21D;59647;55.838;37.292;2022-07-29T00:37:41;16.98;104.54
71801;HTU21D;59647;55.838;37.292;2022-07-29T00:40:07;16.95;104.44
71801;HTU21D;59647;55.838;37.292;2022-07-29T00:42:47;16.91;105.63
71801;HTU21D;59647;55.838;37.292;2022-07-29T00:45:14;16.89;105.40
71801;HTU21D;59647;55.838;37.292;2022-07-29T00:47:40;16.85;106.54
71801;HTU21D;59647;55.838;37.292;2022-07-29T00:50:09;16.84;105.28
71801;HTU21D;59647;55.838;37.292;2022-07-29T00:52:36;16.81;105.89
71801;HTU21D;59647;55.838;37.292;2022-07-29T00:55:07;16.79;105.85
71801;HTU21D;59647;55.838;37.292;2022-07-29T00:57:34;16.78;106.12
71801;HTU21D;59647;55.838;37.292;2022-07-29T01:00:00;16.73;106.30
71801;HTU21D;59647;55.838;37.292;2022-07-29T01:02:28;16.69;106.95
71801;HTU21D;59647;55.838;37.292;2022-07-29T01:04:54;16.67;106.59
71801;HTU21D;59647;55.838;37.292;2022-07-29T01:07:20;16.63;106.21
71801;HTU21D;59647;55.838;37.292;2022-07-29T01:09:46;16.61;107.75
71801;HTU21D;59647;55.838;37.292;2022-07-29T01:12:25;16.59;107.99
71801;HTU21D;59647;55.838;37.292;2022-07-29T01:14:52;16.60;107.31
71801;HTU21D;59647;55.838;37.292;2022-07-29T01:20:17;16.50;107.70
71801;HTU21D;59647;55.838;37.292;2022-07-29T01:30:55;16.42;107.34
71801;HTU21D;59647;55.838;37.292;2022-07-29T01:33:21;16.39;106.65
71801;HTU21D;59647;55.838;37.292;2022-07-29T01:36:14;16.36;107.45
71801;HTU21D;59647;55.838;37.292;2022-07-29T01:38:43;16.33;107.09
71801;HTU21D;59647;55.838;37.292;2022-07-29T01:41:13;16.31;106.75
71801;HTU21D;59647;55.838;37.292;2022-07-29T01:43:52;16.32;107.26
71801;HTU21D;59647;55.838;37.292;2022-07-29T01:46:39;16.28;108.74
71801;HTU21D;59647;55.838;37.292;2022-07-29T01:49:23;16.24;108.91
71801;HTU21D;59647;55.838;37.292;2022-07-29T01:51:53;16.21;107.39
71801;HTU21D;59647;55.838;37.292;2022-07-29T01:54:26;16.21;108.52
71801;HTU21D;59647;55.838;37.292;2022-07-29T01:56:56;16.20;107.78
71801;HTU21D;59647;55.838;37.292;2022-07-29T01:59:23;16.22;107.73
71801;HTU21D;59647;55.838;37.292;2022-07-29T02:01:52;16.25;107.80
71801;HTU21D;59647;55.838;37.292;2022-07-29T02:04:20;16.25;109.16
71801;HTU21D;59647;55.838;37.292;2022-07-29T02:06:49;16.27;108.48
71801;HTU21D;59647;55.838;37.292;2022-07-29T02:09:16;16.27;108.49
71801;HTU21D;59647;55.838;37.292;2022-07-29T02:11:49;16.30;107.48
71801;HTU21D;59647;55.838;37.292;2022-07-29T02:14:19;16.30;108.64
71801;HTU21D;59647;55.838;37.292;2022-07-29T02:16:47;16.30;107.11
71801;HTU21D;59647;55.838;37.292;2022-07-29T02:19:14;16.32;107.01
71801;HTU21D;59647;55.838;37.292;2022-07-29T02:21:43;16.34;107.11
71801;HTU21D;59647;55.838;37.292;2022-07-29T02:24:11;16.35;106.61
71801;HTU21D;59647;55.838;37.292;2022-07-29T02:26:40;16.39;107.02
71801;HTU21D;59647;55.838;37.292;2022-07-29T02:29:08;16.41;108.14
71801;HTU21D;59647;55.838;37.292;2022-07-29T02:31:36;16.42;106.84
71801;HTU21D;59647;55.838;37.292;2022-07-29T02:34:06;16.43;106.62
71801;HTU21D;59647;55.838;37.292;2022-07-29T02:36:33;16.44;107.46
71801;HTU21D;59647;55.838;37.292;2022-07-29T02:39:00;16.44;107.61
71801;HTU21D;59647;55.838;37.292;2022-07-29T02:41:37;16.43;107.31
71801;HTU21D;59647;55.838;37.292;2022-07-29T02:44:17;16.43;108.28
71801;HTU21D;59647;55.838;37.292;2022-07-29T02:46:50;16.46;107.51
71801;HTU21D;59647;55.838;37.292;2022-07-29T02:52:11;16.47;107.59
71801;HTU21D;59647;55.838;37.292;2022-07-29T02:54:39;16.49;107.28
71801;HTU21D;59647;55.838;37.292;2022-07-29T02:57:14;16.50;107.60
71801;HTU21D;59647;55.838;37.292;2022-07-29T02:59:45;16.49;107.17
71801;HTU21D;59647;55.838;37.292;2022-07-29T03:02:14;16.50;107.69
71801;HTU21D;59647;55.838;37.292;2022-07-29T03:04:41;16.54;107.02
71801;HTU21D;59647;55.838;37.292;2022-07-29T03:07:09;16.52;107.07
71801;HTU21D;59647;55.838;37.292;2022-07-29T03:09:36;16.54;106.99
71801;HTU21D;59647;55.838;37.292;2022-07-29T03:12:04;16.56;107.10
71801;HTU21D;59647;55.838;37.292;2022-07-29T03:14:31;16.56;107.81
71801;HTU21D;59647;55.838;37.292;2022-07-29T03:16:57;16.58;107.08
71801;HTU21D;59647;55.838;37.292;2022-07-29T03:19:23;16.61;106.83
71801;HTU21D;59647;55.838;37.292;2022-07-29T03:21:50;16.64;107.01
71801;HTU21D;59647;55.838;37.292;2022-07-29T03:24:26;16.63;107.47
71801;HTU21D;59647;55.838;37.292;2022-07-29T03:26:52;16.65;107.73
71801;HTU21D;59647;55.838;37.292;2022-07-29T03:29:19;16.66;107.04
71801;HTU21D;59647;55.838;37.292;2022-07-29T03:31:45;16.69;106.70
71801;HTU21D;59647;55.838;37.292;2022-07-29T03:34:11;16.71;107.30
71801;HTU21D;59647;55.838;37.292;2022-07-29T03:36:37;16.74;106.67
71801;HTU21D;59647;55.838;37.292;2022-07-29T03:39:03;16.76;106.58
71801;HTU21D;59647;55.838;37.292;2022-07-29T03:41:30;16.81;106.81
71801;HTU21D;59647;55.838;37.292;2022-07-29T03:43:58;16.82;107.26
71801;HTU21D;59647;55.838;37.292;2022-07-29T03:46:26;16.86;107.01
71801;HTU21D;59647;55.838;37.292;2022-07-29T03:48:59;16.89;106.50
71801;HTU21D;59647;55.838;37.292;2022-07-29T03:51:25;16.95;106.11
71801;HTU21D;59647;55.838;37.292;2022-07-29T03:53:52;17.02;106.26
71801;HTU21D;59647;55.838;37.292;2022-07-29T03:56:21;17.10;106.24
71801;HTU21D;59647;55.838;37.292;2022-07-29T03:58:49;17.16;106.11
71801;HTU21D;59647;55.838;37.292;2022-07-29T04:01:16;17.23;105.99
71801;HTU21D;59647;55.838;37.292;2022-07-29T04:03:43;17.33;105.80
71801;HTU21D;59647;55.838;37.292;2022-07-29T04:06:11;17.41;105.27
71801;HTU21D;59647;55.838;37.292;2022-07-29T04:08:37;17.53;105.03
71801;HTU21D;59647;55.838;37.292;2022-07-29T04:11:03;17.63;105.38
71801;HTU21D;59647;55.838;37.292;2022-07-29T04:13:31;17.74;105.15
71801;HTU21D;59647;55.838;37.292;2022-07-29T04:15:57;17.82;104.54
71801;HTU21D;59647;55.838;37.292;2022-07-29T04:18:24;17.95;104.31
71801;HTU21D;59647;55.838;37.292;2022-07-29T04:20:50;18.06;104.30
71801;HTU21D;59647;55.838;37.292;2022-07-29T04:23:16;18.14;103.76
71801;HTU21D;59647;55.838;37.292;2022-07-29T04:25:42;18.25;103.47
71801;HTU21D;59647;55.838;37.292;2022-07-29T04:28:09;18.30;103.22
71801;HTU21D;59647;55.838;37.292;2022-07-29T04:30:36;18.40;103.17
71801;HTU21D;59647;55.838;37.292;2022-07-29T04:33:04;18.54;103.08
71801;HTU21D;59647;55.838;37.292;2022-07-29T04:35:33;18.64;103.01
71801;HTU21D;59647;55.838;37.292;2022-07-29T04:37:59;18.72;102.52
71801;HTU21D;59647;55.838;37.292;2022-07-29T04:40:24;18.83;102.28
71801;HTU21D;59647;55.838;37.292;2022-07-29T04:42:50;18.92;102.06
71801;HTU21D;59647;55.838;37.292;2022-07-29T04:45:16;19.03;101.93
71801;HTU21D;59647;55.838;37.292;2022-07-29T04:47:42;19.12;100.99
71801;HTU21D;59647;55.838;37.292;2022-07-29T04:50:09;19.20;100.74
71801;HTU21D;59647;55.838;37.292;2022-07-29T04:52:35;19.26;100.31
71801;HTU21D;59647;55.838;37.292;2022-07-29T04:55:01;19.35;100.54
71801;HTU21D;59647;55.838;37.292;2022-07-29T04:57:29;19.41;100.18
71801;HTU21D;59647;55.838;37.292;2022-07-29T04:59:55;19.50;99.85
71801;HTU21D;59647;55.838;37.292;2022-07-29T05:02:21;19.53;99.35
71801;HTU21D;59647;55.838;37.292;2022-07-29T05:04:47;19.58;99.61
71801;HTU21D;59647;55.838;37.292;2022-07-29T05:07:13;19.67;99.26
71801;HTU21D;59647;55.838;37.292;2022-07-29T05:09:40;19.76;99.78
71801;HTU21D;59647;55.838;37.292;2022-07-29T05:12:14;19.95;99.91
71801;HTU21D;59647;55.838;37.292;2022-07-29T05:14:41;20.10;99.22
71801;HTU21D;59647;55.838;37.292;2022-07-29T05:17:06;20.26;98.98
71801;HTU21D;59647;55.838;37.292;2022-07-29T05:19:32;20.35;97.61
71801;HTU21D;59647;55.838;37.292;2022-07-29T05:21:58;20.43;97.29
71801;HTU21D;59647;55.838;37.292;2022-07-29T05:24:25;20.47;96.61
71801;HTU21D;59647;55.838;37.292;2022-07-29T05:26:51;20.57;97.19
71801;HTU21D;59647;55.838;37.292;2022-07-29T05:29:17;20.69;97.11
71801;HTU21D;59647;55.838;37.292;2022-07-29T05:31:43;20.85;96.89
71801;HTU21D;59647;55.838;37.292;2022-07-29T05:34:09;20.96;96.08
71801;HTU21D;59647;55.838;37.292;2022-07-29T05:36:34;21.06;96.51
71801;HTU21D;59647;55.838;37.292;2022-07-29T05:39:00;21.17;95.88
71801;HTU21D;59647;55.838;37.292;2022-07-29T05:41:26;21.29;95.14
71801;HTU21D;59647;55.838;37.292;2022-07-29T05:43:52;21.42;95.17
71801;HTU21D;59647;55.838;37.292;2022-07-29T05:46:18;21.55;94.66
71801;HTU21D;59647;55.838;37.292;2022-07-29T05:48:45;21.67;93.95
71801;HTU21D;59647;55.838;37.292;2022-07-29T05:51:10;21.75;93.30
71801;HTU21D;59647;55.838;37.292;2022-07-29T05:53:36;21.85;94.02
71801;HTU21D;59647;55.838;37.292;2022-07-29T05:56:03;22.01;92.33
71801;HTU21D;59647;55.838;37.292;2022-07-29T05:58:30;22.06;90.72
71801;HTU21D;59647;55.838;37.292;2022-07-29T06:00:56;22.08;92.13
71801;HTU21D;59647;55.838;37.292;2022-07-29T06:03:25;22.21;92.15
71801;HTU21D;59647;55.838;37.292;2022-07-29T06:05:51;22.33;91.34
71801;HTU21D;59647;55.838;37.292;2022-07-29T06:08:17;22.47;91.24
71801;HTU21D;59647;55.838;37.292;2022-07-29T06:10:43;22.54;88.11
71801;HTU21D;59647;55.838;37.292;2022-07-29T06:13:09;22.66;89.64
71801;HTU21D;59647;55.838;37.292;2022-07-29T06:15:34;22.81;89.18
71801;HTU21D;59647;55.838;37.292;2022-07-29T06:18:01;22.94;88.68
71801;HTU21D;59647;55.838;37.292;2022-07-29T06:20:30;22.92;86.96
71801;HTU21D;59647;55.838;37.292;2022-07-29T06:22:56;22.93;84.61
71801;HTU21D;59647;55.838;37.292;2022-07-29T06:25:22;22.98;87.15
71801;HTU21D;59647;55.838;37.292;2022-07-29T06:27:48;23.12;87.63
71801;HTU21D;59647;55.838;37.292;2022-07-29T06:30:14;23.22;86.87
71801;HTU21D;59647;55.838;37.292;2022-07-29T06:32:39;23.30;86.06
71801;HTU21D;59647;55.838;37.292;2022-07-29T06:35:06;23.45;81.74
71801;HTU21D;59647;55.838;37.292;2022-07-29T06:37:32;23.51;85.99
71801;HTU21D;59647;55.838;37.292;2022-07-29T06:39:57;23.73;85.55
71801;HTU21D;59647;55.838;37.292;2022-07-29T06:42:42;23.98;84.19
71801;HTU21D;59647;55.838;37.292;2022-07-29T06:45:09;24.14;79.25
71801;HTU21D;59647;55.838;37.292;2022-07-29T06:47:35;24.13;76.93
71801;HTU21D;59647;55.838;37.292;2022-07-29T06:50:01;24.26;79.80
71801;HTU21D;59647;55.838;37.292;2022-07-29T06:52:29;24.34;79.24
71801;HTU21D;59647;55.838;37.292;2022-07-29T06:54:55;24.57;79.96
71801;HTU21D;59647;55.838;37.292;2022-07-29T06:57:21;24.71;78.36
71801;HTU21D;59647;55.838;37.292;2022-07-29T06:59:47;24.90;77.92
71801;HTU21D;59647;55.838;37.292;2022-07-29T07:02:13;25.16;78.63
71801;HTU21D;59647;55.838;37.292;2022-07-29T07:04:39;25.31;77.48
71801;HTU21D;59647;55.838;37.292;2022-07-29T07:07:05;25.28;70.50
71801;HTU21D;59647;55.838;37.292;2022-07-29T07:09:31;25.28;73.27
71801;HTU21D;59647;55.838;37.292;2022-07-29T07:11:57;25.16;70.73
71801;HTU21D;59647;55.838;37.292;2022-07-29T07:14:23;24.98;65.02
71801;HTU21D;59647;55.838;37.292;2022-07-29T07:16:49;24.99;73.89
71801;HTU21D;59647;55.838;37.292;2022-07-29T07:19:14;25.00;71.18
71801;HTU21D;59647;55.838;37.292;2022-07-29T07:21:40;25.05;72.38
71801;HTU21D;59647;55.838;37.292;2022-07-29T07:24:06;25.27;72.83
71801;HTU21D;59647;55.838;37.292;2022-07-29T07:26:32;25.38;73.71
71801;HTU21D;59647;55.838;37.292;2022-07-29T07:28:58;25.59;71.74
71801;HTU21D;59647;55.838;37.292;2022-07-29T07:31:25;25.49;72.45
71801;HTU21D;59647;55.838;37.292;2022-07-29T07:33:51;25.35;71.81
71801;HTU21D;59647;55.838;37.292;2022-07-29T07:36:19;25.30;70.81
71801;HTU21D;59647;55.838;37.292;2022-07-29T07:38:45;25.42;72.22
71801;HTU21D;59647;55.838;37.292;2022-07-29T07:41:11;25.60;71.54
71801;HTU21D;59647;55.838;37.292;2022-07-29T07:43:36;25.71;70.45
71801;HTU21D;59647;55.838;37.292;2022-07-29T07:46:03;25.95;69.44
71801;HTU21D;59647;55.838;37.292;2022-07-29T07:48:29;26.12;69.83
71801;HTU21D;59647;55.838;37.292;2022-07-29T07:50:55;26.22;70.00
71801;HTU21D;59647;55.838;37.292;2022-07-29T07:53:21;26.56;68.67
71801;HTU21D;59647;55.838;37.292;2022-07-29T07:55:47;26.73;65.91
71801;HTU21D;59647;55.838;37.292;2022-07-29T07:58:13;26.77;67.49
71801;HTU21D;59647;55.838;37.292;2022-07-29T08:00:39;26.97;67.77
71801;HTU21D;59647;55.838;37.292;2022-07-29T08:03:05;27.04;65.00
71801;HTU21D;59647;55.838;37.292;2022-07-29T08:05:31;26.92;66.74
71801;HTU21D;59647;55.838;37.292;2022-07-29T08:07:57;26.76;66.27
71801;HTU21D;59647;55.838;37.292;2022-07-29T08:10:23;26.78;67.97
71801;HTU21D;59647;55.838;37.292;2022-07-29T08:13:09;26.87;67.28
71801;HTU21D;59647;55.838;37.292;2022-07-29T08:15:36;27.07;61.84
71801;HTU21D;59647;55.838;37.292;2022-07-29T08:18:04;27.02;66.88
71801;HTU21D;59647;55.838;37.292;2022-07-29T08:20:29;26.75;65.35
71801;HTU21D;59647;55.838;37.292;2022-07-29T08:22:57;26.83;66.39
71801;HTU21D;59647;55.838;37.292;2022-07-29T08:25:23;27.12;64.78
71801;HTU21D;59647;55.838;37.292;2022-07-29T08:27:49;27.50;65.71
71801;HTU21D;59647;55.838;37.292;2022-07-29T08:30:15;27.76;62.15
71801;HTU21D;59647;55.838;37.292;2022-07-29T08:32:41;27.37;55.26
71801;HTU21D;59647;55.838;37.292;2022-07-29T08:35:07;26.96;61.02
71801;HTU21D;59647;55.838;37.292;2022-07-29T08:37:33;27.13;63.76
71801;HTU21D;59647;55.838;37.292;2022-07-29T08:39:59;27.43;63.72
71801;HTU21D;59647;55.838;37.292;2022-07-29T08:42:25;27.67;58.58
71801;HTU21D;59647;55.838;37.292;2022-07-29T08:44:51;27.22;59.85
71801;HTU21D;59647;55.838;37.292;2022-07-29T08:47:17;26.82;63.32
71801;HTU21D;59647;55.838;37.292;2022-07-29T08:49:43;26.63;62.93
71801;HTU21D;59647;55.838;37.292;2022-07-29T08:52:11;26.45;63.34
71801;HTU21D;59647;55.838;37.292;2022-07-29T08:54:40;26.41;59.97
71801;HTU21D;59647;55.838;37.292;2022-07-29T08:57:09;26.51;63.90
71801;HTU21D;59647;55.838;37.292;2022-07-29T08:59:40;26.60;60.31
71801;HTU21D;59647;55.838;37.292;2022-07-29T09:02:15;26.94;61.15
71801;HTU21D;59647;55.838;37.292;2022-07-29T09:04:44;27.08;62.05
71801;HTU21D;59647;55.838;37.292;2022-07-29T09:07:14;27.07;58.99
71801;HTU21D;59647;55.838;37.292;2022-07-29T09:09:42;27.14;61.99
71801;HTU21D;59647;55.838;37.292;2022-07-29T09:12:09;27.32;58.90
71801;HTU21D;59647;55.838;37.292;2022-07-29T09:14:38;27.50;60.76
71801;HTU21D;59647;55.838;37.292;2022-07-29T09:17:04;27.61;58.60
71801;HTU21D;59647;55.838;37.292;2022-07-29T09:19:32;27.65;58.07
71801;HTU21D;59647;55.838;37.292;2022-07-29T09:22:02;27.84;59.09
71801;HTU21D;59647;55.838;37.292;2022-07-29T09:27:11;28.46;52.98
71801;HTU21D;59647;55.838;37.292;2022-07-29T09:29:38;28.71;53.52
71801;HTU21D;59647;55.838;37.292;2022-07-29T09:32:07;28.90;54.13
71801;HTU21D;59647;55.838;37.292;2022-07-29T09:34:34;28.69;54.73
71801;HTU21D;59647;55.838;37.292;2022-07-29T09:36:59;28.58;54.23
71801;HTU21D;59647;55.838;37.292;2022-07-29T09:39:37;28.53;51.53
71801;HTU21D;59647;55.838;37.292;2022-07-29T09:42:10;28.60;55.71
71801;HTU21D;59647;55.838;37.292;2022-07-29T09:44:49;28.80;53.13
71801;HTU21D;59647;55.838;37.292;2022-07-29T09:47:17;29.11;55.29
71801;HTU21D;59647;55.838;37.292;2022-07-29T09:49:51;29.30;51.59
71801;HTU21D;59647;55.838;37.292;2022-07-29T09:52:17;29.37;53.26
71801;HTU21D;59647;55.838;37.292;2022-07-29T09:54:44;29.44;52.62
71801;HTU21D;59647;55.838;37.292;2022-07-29T09:57:23;29.51;43.66
71801;HTU21D;59647;55.838;37.292;2022-07-29T10:00:24;29.41;45.98
71801;HTU21D;59647;55.838;37.292;2022-07-29T10:02:50;29.45;53.11
71801;HTU21D;59647;55.838;37.292;2022-07-29T10:05:21;29.41;50.03
71801;HTU21D;59647;55.838;37.292;2022-07-29T10:07:53;29.23;48.88
71801;HTU21D;59647;55.838;37.292;2022-07-29T10:10:25;29.11;44.12
71801;HTU21D;59647;55.838;37.292;2022-07-29T10:12:53;29.14;51.95
71801;HTU21D;59647;55.838;37.292;2022-07-29T10:15:22;28.95;48.18
71801;HTU21D;59647;55.838;37.292;2022-07-29T10:17:49;28.95;52.28
71801;HTU21D;59647;55.838;37.292;2022-07-29T10:20:15;29.18;51.88
71801;HTU21D;59647;55.838;37.292;2022-07-29T10:22:42;29.03;42.97
71801;HTU21D;59647;55.838;37.292;2022-07-29T10:25:09;29.28;52.87
71801;HTU21D;59647;55.838;37.292;2022-07-29T10:27:36;29.65;52.33
71801;HTU21D;59647;55.838;37.292;2022-07-29T10:30:06;29.58;50.30
71801;HTU21D;59647;55.838;37.292;2022-07-29T10:42:06;29.17;47.34
71801;HTU21D;59647;55.838;37.292;2022-07-29T10:46:37;29.33;47.92
71801;HTU21D;59647;55.838;37.292;2022-07-29T10:57:26;29.52;48.56
71801;HTU21D;59647;55.838;37.292;2022-07-29T11:05:17;29.16;47.28
71801;HTU21D;59647;55.838;37.292;2022-07-29T11:10:37;28.25;52.17
71801;HTU21D;59647;55.838;37.292;2022-07-29T11:13:03;27.78;53.05
71801;HTU21D;59647;55.838;37.292;2022-07-29T11:15:56;27.23;52.24
71801;HTU21D;59647;55.838;37.292;2022-07-29T11:18:23;26.96;54.56
71801;HTU21D;59647;55.838;37.292;2022-07-29T11:20:50;26.90;55.13
71801;HTU21D;59647;55.838;37.292;2022-07-29T11:23:33;27.28;55.45
71801;HTU21D;59647;55.838;37.292;2022-07-29T11:26:13;27.41;54.12
71801;HTU21D;59647;55.838;37.292;2022-07-29T11:31:50;27.08;55.18
71801;HTU21D;59647;55.838;37.292;2022-07-29T11:34:30;27.05;55.78
71801;HTU21D;59647;55.838;37.292;2022-07-29T11:39:34;26.86;56.36
71801;HTU21D;59647;55.838;37.292;2022-07-29T11:47:42;27.21;54.43
71801;HTU21D;59647;55.838;37.292;2022-07-29T11:50:32;27.39;51.02
71801;HTU21D;59647;55.838;37.292;2022-07-29T11:53:12;27.68;50.06
71801;HTU21D;59647;55.838;37.292;2022-07-29T11:55:39;27.94;52.84
71801;HTU21D;59647;55.838;37.292;2022-07-29T11:58:05;27.96;53.88
71801;HTU21D;59647;55.838;37.292;2022-07-29T12:00:38;27.81;52.17
71801;HTU21D;59647;55.838;37.292;2022-07-29T12:03:07;27.69;50.39
71801;HTU21D;59647;55.838;37.292;2022-07-29T12:05:42;27.81;54.01
71801;HTU21D;59647;55.838;37.292;2022-07-29T12:08:19;28.15;49.23
71801;HTU21D;59647;55.838;37.292;2022-07-29T12:10:46;28.29;53.62
71801;HTU21D;59647;55.838;37.292;2022-07-29T12:13:14;28.26;51.11
71801;HTU21D;59647;55.838;37.292;2022-07-29T12:15:42;28.09;52.73
71801;HTU21D;59647;55.838;37.292;2022-07-29T12:18:19;28.08;51.57
71801;HTU21D;59647;55.838;37.292;2022-07-29T12:20:46;28.12;52.07
71801;HTU21D;59647;55.838;37.292;2022-07-29T12:23:14;28.15;52.88
71801;HTU21D;59647;55.838;37.292;2022-07-29T12:25:43;28.40;48.95
71801;HTU21D;59647;55.838;37.292;2022-07-29T12:28:11;28.47;49.90
71801;HTU21D;59647;55.838;37.292;2022-07-29T12:30:43;28.45;47.41
71801;HTU21D;59647;55.838;37.292;2022-07-29T12:33:16;28.34;50.48
71801;HTU21D;59647;55.838;37.292;2022-07-29T12:35:54;28.60;49.02
71801;HTU21D;59647;55.838;37.292;2022-07-29T12:38:21;28.85;51.14
71801;HTU21D;59647;55.838;37.292;2022-07-29T12:40:48;29.09;51.42
71801;HTU21D;59647;55.838;37.292;2022-07-29T12:43:21;29.34;45.74
71801;HTU21D;59647;55.838;37.292;2022-07-29T12:45:52;29.50;48.38
71801;HTU21D;59647;55.838;37.292;2022-07-29T12:48:42;29.35;46.68
71801;HTU21D;59647;55.838;37.292;2022-07-29T12:51:09;29.50;48.40
71801;HTU21D;59647;55.838;37.292;2022-07-29T12:53:37;29.78;49.92
71801;HTU21D;59647;55.838;37.292;2022-07-29T12:56:04;30.09;50.14
71801;HTU21D;59647;55.838;37.292;2022-07-29T12:58:37;30.23;46.22
71801;HTU21D;59647;55.838;37.292;2022-07-29T13:01:10;30.57;45.87
71801;HTU21D;59647;55.838;37.292;2022-07-29T13:03:54;30.81;43.82
71801;HTU21D;59647;55.838;37.292;2022-07-29T13:09:18;31.18;46.20
71801;HTU21D;59647;55.838;37.292;2022-07-29T13:11:49;31.19;48.20
71801;HTU21D;59647;55.838;37.292;2022-07-29T13:17:18;30.39;35.36
71801;HTU21D;59647;55.838;37.292;2022-07-29T13:19:51;30.26;44.48
71801;HTU21D;59647;55.838;37.292;2022-07-29T13:22:22;30.22;44.20
71801;HTU21D;59647;55.838;37.292;2022-07-29T13:24:54;30.01;44.76
71801;HTU21D;59647;55.838;37.292;2022-07-29T13:27:25;29.80;46.53
71801;HTU21D;59647;55.838;37.292;2022-07-29T13:29:52;29.36;46.07
71801;HTU21D;59647;55.838;37.292;2022-07-29T13:32:21;29.00;45.64
71801;HTU21D;59647;55.838;37.292;2022-07-29T13:34:47;28.98;48.75
71801;HTU21D;59647;55.838;37.292;2022-07-29T13:37:14;29.16;49.49
71801;HTU21D;59647;55.838;37.292;2022-07-29T13:39:40;29.35;49.50
71801;HTU21D;59647;55.838;37.292;2022-07-29T13:42:06;29.36;48.44
71801;HTU21D;59647;55.838;37.292;2022-07-29T13:44:33;29.20;49.05
71801;HTU21D;59647;55.838;37.292;2022-07-29T13:46:59;28.97;49.46
71801;HTU21D;59647;55.838;37.292;2022-07-29T13:49:25;28.87;48.93
71801;HTU21D;59647;55.838;37.292;2022-07-29T13:51:51;28.98;48.88
71801;HTU21D;59647;55.838;37.292;2022-07-29T13:54:17;29.14;48.91
71801;HTU21D;59647;55.838;37.292;2022-07-29T13:56:43;29.41;49.08
71801;HTU21D;59647;55.838;37.292;2022-07-29T13:59:09;29.56;45.86
71801;HTU21D;59647;55.838;37.292;2022-07-29T14:01:35;29.59;48.70
71801;HTU21D;59647;55.838;37.292;2022-07-29T14:04:02;29.43;49.06
71801;HTU21D;59647;55.838;37.292;2022-07-29T14:06:28;29.22;49.37
71801;HTU21D;59647;55.838;37.292;2022-07-29T14:08:54;28.97;49.03
71801;HTU21D;59647;55.838;37.292;2022-07-29T14:11:20;28.76;49.88
71801;HTU21D;59647;55.838;37.292;2022-07-29T14:13:46;28.67;50.03
71801;HTU21D;59647;55.838;37.292;2022-07-29T14:16:12;28.78;50.27
71801;HTU21D;59647;55.838;37.292;2022-07-29T14:18:40;29.01;50.43
71801;HTU21D;59647;55.838;37.292;2022-07-29T14:21:06;29.13;49.85
71801;HTU21D;59647;55.838;37.292;2022-07-29T14:23:32;29.49;49.79
71801;HTU21D;59647;55.838;37.292;2022-07-29T14:25:58;29.86;49.49
71801;HTU21D;59647;55.838;37.292;2022-07-29T14:28:23;30.23;49.64
71801;HTU21D;59647;55.838;37.292;2022-07-29T14:30:49;30.25;49.33
71801;HTU21D;59647;55.838;37.292;2022-07-29T14:33:15;29.87;48.12
71801;HTU21D;59647;55.838;37.292;2022-07-29T14:35:41;29.58;47.88
71801;HTU21D;59647;55.838;37.292;2022-07-29T14:38:07;29.49;48.25
71801;HTU21D;59647;55.838;37.292;2022-07-29T14:40:34;29.61;48.63
71801;HTU21D;59647;55.838;37.292;2022-07-29T14:43:00;29.66;47.06
71801;HTU21D;59647;55.838;37.292;2022-07-29T14:45:25;29.86;48.18
71801;HTU21D;59647;55.838;37.292;2022-07-29T14:47:53;29.82;47.20
71801;HTU21D;59647;55.838;37.292;2022-07-29T14:50:19;29.48;48.05
71801;HTU21D;59647;55.838;37.292;2022-07-29T14:52:45;29.08;48.26
71801;HTU21D;59647;55.838;37.292;2022-07-29T14:55:11;28.70;45.41
71801;HTU21D;59647;55.838;37.292;2022-07-29T14:57:37;28.41;48.28
71801;HTU21D;59647;55.838;37.292;2022-07-29T15:00:04;28.14;49.09
71801;HTU21D;59647;55.838;37.292;2022-07-29T15:02:33;27.93;49.89
71801;HTU21D;59647;55.838;37.292;2022-07-29T15:04:58;27.66;49.82
71801;HTU21D;59647;55.838;37.292;2022-07-29T15:07:24;27.42;50.58
71801;HTU21D;59647;55.838;37.292;2022-07-29T15:09:50;27.23;49.56
71801;HTU21D;59647;55.838;37.292;2022-07-29T15:12:16;26.99;52.87
71801;HTU21D;59647;55.838;37.292;2022-07-29T15:14:42;26.64;54.31
71801;HTU21D;59647;55.838;37.292;2022-07-29T15:17:08;26.23;56.49
71801;HTU21D;59647;55.838;37.292;2022-07-29T15:19:34;25.89;59.15
71801;HTU21D;59647;55.838;37.292;2022-07-29T15:22:00;25.68;58.12
71801;HTU21D;59647;55.838;37.292;2022-07-29T15:24:27;25.56;58.42
71801;HTU21D;59647;55.838;37.292;2022-07-29T15:26:56;25.40;58.10
71801;HTU21D;59647;55.838;37.292;2022-07-29T15:29:22;24.97;63.83
71801;HTU21D;59647;55.838;37.292;2022-07-29T15:31:48;25.01;59.33
71801;HTU21D;59647;55.838;37.292;2022-07-29T15:34:14;24.90;59.61
71801;HTU21D;59647;55.838;37.292;2022-07-29T15:36:40;24.55;61.89
71801;HTU21D;59647;55.838;37.292;2022-07-29T15:39:06;24.46;61.59
71801;HTU21D;59647;55.838;37.292;2022-07-29T15:41:33;24.34;61.83
71801;HTU21D;59647;55.838;37.292;2022-07-29T15:43:59;24.39;62.88
71801;HTU21D;59647;55.838;37.292;2022-07-29T15:46:25;24.38;61.64
71801;HTU21D;59647;55.838;37.292;2022-07-29T15:49:09;24.14;61.73
71801;HTU21D;59647;55.838;37.292;2022-07-29T15:51:36;23.95;62.74
71801;HTU21D;59647;55.838;37.292;2022-07-29T15:54:04;23.91;63.00
71801;HTU21D;59647;55.838;37.292;2022-07-29T15:56:30;23.74;63.11
71801;HTU21D;59647;55.838;37.292;2022-07-29T15:58:57;23.73;63.97
71801;HTU21D;59647;55.838;37.292;2022-07-29T16:01:23;23.79;63.91
71801;HTU21D;59647;55.838;37.292;2022-07-29T16:03:49;23.81;64.32
71801;HTU21D;59647;55.838;37.292;2022-07-29T16:06:15;23.82;64.72